Time;durP1;ratioP1;P1;durP2;ratioP2;P2;SDS_P1;SDS_P2;PMS_P1;PMS_P2;Temp;Humidity;BMP_temperature;BMP_pressure;BME280_temperature;BME280_humidity;BME280_pressure;Samples;Min_cycle;Max_cycle;Signal;HPM_P1;HPM_P2
2024/01/17 00:00:46;;;;;;;;;10.00;9.25;;;;;10.35;77.88;101017.00;146709;566;46022;-68
2024/01/17 00:04:08;;;;;;;;;9.00;8.00;;;;;10.36;76.93;101010.97;146625;617;46016;-69
2024/01/17 00:07:05;;;;;;;;;17.75;11.75;;;;;10.34;76.00;101011.69;146624;576;46020;-69
2024/01/17 00:10:10;;;;;;;;;11.50;10.00;;;;;10.35;75.82;101003.13;146619;575;46016;-70
2024/01/17 00:13:06;;;;;;;;;6.75;6.75;;;;;10.35;75.46;101008.31;146620;575;47020;-69
2024/01/17 00:16:14;;;;;;;;;7.50;6.00;;;;;10.29;75.32;100992.41;146624;584;47012;-69
2024/01/17 00:18:56;;;;;;;;;9.00;8.25;;;;;10.21;78.58;101006.59;146698;567;46022;-67
2024/01/17 00:21:56;;;;;;;;;10.00;8.25;;;;;10.15;76.84;100994.19;146616;582;47014;-68
2024/01/17 00:25:05;;;;;;;;;9.50;8.50;;;;;10.11;76.35;100994.81;146612;573;48010;-66
2024/01/17 00:28:17;;;;;;;;;7.75;6.75;;;;;10.04;75.74;100993.56;146613;675;46012;-68
2024/01/17 00:31:28;;;;;;;;;7.75;6.25;;;;;10.02;75.91;100990.00;146613;655;46020;-72
2024/01/17 00:34:48;;;;;;;;;9.00;7.25;;;;;10.02;75.59;100996.87;146612;614;46016;-72
2024/01/17 00:37:48;;;;;;;;;10.25;8.50;;;;;9.99;75.91;100987.22;146614;574;46027;-73
2024/01/17 00:41:03;;;;;;;;;6.00;6.00;;;;;9.36;74.66;100886.91;146614;651;46915;-73
2024/01/17 00:44:06;;;;;;;;;13.75;13.00;;;;;10.08;75.49;101011.06;146616;640;46020;-72
2024/01/17 00:47:01;;;;;;;;;17.75;13.25;;;;;10.11;75.64;101003.47;146606;615;46034;-72
2024/01/17 00:49:54;;;;;;;;;26.75;22.75;;;;;10.15;75.02;101008.03;146611;590;46020;-71
2024/01/17 00:52:57;;;;;;;;;41.00;32.75;;;;;10.16;74.54;101011.53;146606;618;46012;-66
2024/01/17 00:55:51;;;;;;;;;11.00;9.50;;;;;10.11;75.12;101012.97;146610;654;47010;-68
2024/01/17 00:58:59;;;;;;;;;11.00;9.50;;;;;9.66;74.70;100953.41;146610;671;47016;-67
2024/01/17 01:02:02;;;;;;;;;10.00;8.75;;;;;9.92;75.28;101004.13;146615;573;47020;-67
2024/01/17 01:05:10;;;;;;;;;;;;;;;;;;;;;
2024/01/17 01:08:13;;;;;;;;;10.00;9.25;;;;;9.82;76.80;101019.03;146610;594;46010;-68
2024/01/17 01:11:09;;;;;;;;;19.50;19.00;;;;;9.80;76.40;101005.09;146612;686;47016;-67
2024/01/17 01:14:18;;;;;;;;;;;;;;;;;;;;;
2024/01/17 01:17:25;;;;;;;;;9.25;8.75;;;;;9.84;76.23;100994.09;146612;603;46913;-68
2024/01/17 01:20:22;;;;;;;;;8.50;6.75;;;;;9.86;75.96;100989.91;146615;573;46021;-67
2024/01/17 01:23:19;;;;;;;;;10.00;7.00;;;;;9.88;75.86;100991.81;146614;622;46014;-68
2024/01/17 01:26:17;;;;;;;;;8.00;6.00;;;;;9.91;75.27;100997.16;146615;605;46021;-68
2024/01/17 01:29:18;;;;;;;;;7.75;7.00;;;;;9.93;75.10;100995.53;146614;583;46032;-67
2024/01/17 01:32:19;;;;;;;;;9.25;8.25;;;;;9.33;74.79;100885.00;146613;619;46030;-74
2024/01/17 01:35:23;;;;;;;;;13.25;11.25;;;;;9.96;74.51;100994.81;146610;564;47012;-74
2024/01/17 01:38:20;;;;;;;;;18.25;16.75;;;;;9.98;74.32;100992.34;146612;587;46020;-72
2024/01/17 01:41:55;;;;;;;;;;;;;;;;;;;;;
2024/01/17 01:44:57;;;;;;;;;45.50;35.50;;;;;9.98;73.88;100988.03;146609;608;48012;-72
2024/01/17 01:48:03;;;;;;;;;68.75;51.50;;;;;9.90;73.97;100994.47;146604;564;47013;-74
2024/01/17 01:51:12;;;;;;;;;49.75;40.75;;;;;9.14;73.58;100861.47;146612;604;46010;-73
2024/01/17 01:54:10;;;;;;;;;66.75;52.00;;;;;9.73;74.64;100993.50;146607;615;46012;-73
2024/01/17 01:57:08;;;;;;;;;82.50;70.25;;;;;9.66;74.74;100992.25;146611;686;46010;-72
2024/01/17 02:00:24;;;;;;;;;26.75;21.75;;;;;9.55;74.98;100988.12;146605;571;47012;-73
2024/01/17 02:03:18;;;;;;;;;17.75;16.50;;;;;9.48;75.11;100988.56;146609;564;46023;-72
2024/01/17 02:06:21;;;;;;;;;17.00;15.50;;;;;9.39;74.72;100981.12;146608;603;46023;-73
2024/01/17 02:09:19;;;;;;;;;46.75;39.00;;;;;9.32;75.06;100984.16;146611;584;46020;-71
2024/01/17 02:12:17;;;;;;;;;15.50;14.25;;;;;9.27;74.96;100993.31;146607;574;47016;-70
2024/01/17 02:15:15;;;;;;;;;20.50;16.25;;;;;9.23;74.83;100999.13;146610;607;46010;-70
2024/01/17 02:18:09;;;;;;;;;19.75;16.25;;;;;9.21;75.66;100996.44;146609;582;46017;-70
2024/01/17 02:21:02;;;;;;;;;13.75;12.00;;;;;9.18;74.95;100993.66;146609;569;46010;-71
2024/01/17 02:23:58;;;;;;;;;9.00;8.00;;;;;9.04;77.05;100991.94;146609;570;46016;-70
2024/01/17 02:27:02;;;;;;;;;7.00;7.00;;;;;8.89;77.47;100996.16;146615;581;46021;-70
2024/01/17 02:29:45;;;;;;;;;20.50;17.25;;;;;8.79;79.93;100993.00;146706;576;46012;-70
2024/01/17 02:32:48;;;;;;;;;11.50;10.00;;;;;8.80;78.14;100993.88;146616;724;46016;-69
2024/01/17 02:35:45;;;;;;;;;12.25;11.50;;;;;8.79;77.68;100999.87;146614;596;47011;-69
2024/01/17 02:38:39;;;;;;;;;11.25;9.25;;;;;8.82;77.59;101002.66;146607;566;47012;-70
2024/01/17 02:41:49;;;;;;;;;9.50;9.00;;;;;8.53;77.41;100934.47;146618;591;47010;-71
2024/01/17 02:44:43;;;;;;;;;9.75;9.25;;;;;8.95;77.56;101001.72;146618;572;46017;-69
2024/01/17 02:47:29;;;;;;;;;12.25;11.75;;;;;8.99;80.07;101006.28;146701;566;47013;-70
2024/01/17 02:50:28;;;;;;;;;17.50;15.50;;;;;9.06;78.35;101010.13;146617;694;46012;-71
2024/01/17 02:53:45;;;;;;;;;18.75;17.25;;;;;9.12;77.17;101020.84;146612;585;46020;-70
2024/01/17 02:56:51;;;;;;;;;30.00;27.75;;;;;9.17;77.04;101027.22;146611;621;46916;-70
2024/01/17 02:59:47;;;;;;;;;27.25;27.00;;;;;9.17;76.99;101034.97;146613;615;46020;-66
2024/01/17 03:03:02;;;;;;;;;21.50;20.00;;;;;9.09;76.94;101025.84;146610;590;46016;-68
2024/01/17 03:06:05;;;;;;;;;41.75;33.75;;;;;8.92;77.67;101033.44;146612;570;46010;-68
2024/01/17 03:09:21;;;;;;;;;34.25;30.00;;;;;8.82;77.30;101038.84;146608;597;47012;-69
2024/01/17 03:12:24;;;;;;;;;40.50;32.75;;;;;8.70;77.45;101051.88;146613;608;46022;-67
2024/01/17 03:15:24;;;;;;;;;22.00;21.25;;;;;8.62;77.99;101037.56;146610;581;47015;-70
2024/01/17 03:18:27;;;;;;;;;27.50;23.75;;;;;8.50;77.85;101041.94;146612;606;46020;-69
2024/01/17 03:21:39;;;;;;;;;21.50;19.25;;;;;8.37;80.80;101036.75;146608;622;47016;-69
2024/01/17 03:24:40;;;;;;;;;17.75;16.00;;;;;8.27;81.72;101048.19;146610;570;47021;-72
2024/01/17 03:27:42;;;;;;;;;13.50;11.75;;;;;8.22;83.47;101036.63;146609;621;46014;-70
2024/01/17 03:30:37;;;;;;;;;13.25;13.25;;;;;8.17;83.51;101033.78;146608;617;47020;-68
2024/01/17 03:33:50;;;;;;;;;13.00;12.00;;;;;8.19;83.94;101031.28;146611;627;46012;-68
2024/01/17 03:36:57;;;;;;;;;10.00;10.00;;;;;8.20;82.15;101025.34;146612;575;46010;-69
2024/01/17 03:39:52;;;;;;;;;40.25;33.75;;;;;8.26;82.83;101031.78;146608;626;47017;-70
2024/01/17 03:42:53;;;;;;;;;13.00;12.00;;;;;8.39;81.73;101037.78;146613;614;46010;-70
2024/01/17 03:45:56;;;;;;;;;12.75;12.25;;;;;8.54;82.84;101043.94;146613;576;46016;-69
2024/01/17 03:48:39;;;;;;;;;11.50;9.75;;;;;8.60;86.23;101041.75;146701;563;48014;-70
2024/01/17 03:51:34;;;;;;;;;11.75;10.25;;;;;8.70;83.75;101040.66;146626;653;46012;-69
2024/01/17 03:54:35;;;;;;;;;13.75;12.00;;;;;8.77;82.73;101048.88;146614;565;47021;-69
2024/01/17 03:57:50;;;;;;;;;14.00;13.00;;;;;8.11;81.52;100919.72;146610;563;46012;-71
2024/01/17 04:00:55;;;;;;;;;17.00;16.50;;;;;8.91;81.33;101048.84;146612;682;46020;-68
2024/01/17 04:04:00;;;;;;;;;22.00;19.75;;;;;8.97;80.56;101045.00;146611;632;46016;-69
2024/01/17 04:07:23;;;;;;;;;20.75;17.50;;;;;9.04;79.49;101041.09;146618;601;46010;-67
2024/01/17 04:10:28;;;;;;;;;25.50;22.00;;;;;9.10;79.78;101043.16;146609;729;46032;-70
2024/01/17 04:13:20;;;;;;;;;22.00;19.75;;;;;9.16;79.58;101036.69;146620;611;46014;-69
2024/01/17 04:16:19;;;;;;;;;25.00;23.75;;;;;9.20;79.68;101042.94;146609;634;47012;-70
2024/01/17 04:19:25;;;;;;;;;28.25;23.75;;;;;9.26;78.62;101053.66;146616;589;47010;-70
2024/01/17 04:22:17;;;;;;;;;33.75;29.00;;;;;9.28;78.92;101051.16;146610;626;47016;-71
2024/01/17 04:25:34;;;;;;;;;29.00;26.50;;;;;9.27;78.00;101051.97;146619;630;46011;-71
2024/01/17 04:28:26;;;;;;;;;34.75;29.00;;;;;9.21;78.04;101057.63;146608;590;47012;-72
2024/01/17 04:31:40;;;;;;;;;30.75;29.75;;;;;9.17;77.54;101061.75;146618;618;46021;-71
2024/01/17 04:34:44;;;;;;;;;40.50;32.25;;;;;9.16;77.94;101059.06;146613;630;46016;-72
2024/01/17 04:37:46;;;;;;;;;33.25;29.25;;;;;9.13;78.22;101074.41;146617;606;47010;-71
2024/01/17 04:40:43;;;;;;;;;32.50;28.25;;;;;9.13;77.93;101088.22;146611;625;46012;-74
2024/01/17 04:43:35;;;;;;;;;30.25;25.75;;;;;9.14;77.94;101092.59;146612;583;47014;-73
2024/01/17 04:46:27;;;;;;;;;35.25;29.75;;;;;9.12;77.58;101099.34;146610;598;46016;-70
2024/01/17 04:49:25;;;;;;;;;32.00;30.00;;;;;9.09;77.50;101112.09;146608;618;46010;-71
2024/01/17 04:52:38;;;;;;;;;47.00;36.50;;;;;8.83;76.87;101076.81;146605;620;46016;-70
2024/01/17 04:55:28;;;;;;;;;30.00;26.50;;;;;8.97;80.43;101117.41;146703;570;46022;-70
2024/01/17 04:58:30;;;;;;;;;28.50;24.00;;;;;8.92;78.53;101131.72;146615;570;46014;-70
2024/01/17 05:01:37;;;;;;;;;26.50;25.25;;;;;8.86;79.09;101143.38;146614;668;46010;-68
2024/01/17 05:04:46;;;;;;;;;27.50;25.50;;;;;8.81;78.29;101137.00;146609;584;46016;-66
2024/01/17 05:07:39;;;;;;;;;25.50;21.75;;;;;8.73;79.56;101137.41;146614;571;46020;-67
2024/01/17 05:11:18;;;;;;;;;31.25;29.25;;;;;8.67;79.74;101143.88;146614;586;46013;-69
2024/01/17 05:14:12;;;;;;;;;32.50;27.25;;;;;8.61;82.20;101136.59;146610;565;46010;-68
2024/01/17 05:17:19;;;;;;;;;;;;;;;;;;;;;
2024/01/17 05:20:25;;;;;;;;;28.75;26.00;;;;;8.53;82.23;101132.59;146614;618;46020;-70
2024/01/17 05:23:44;;;;;;;;;23.75;22.50;;;;;8.54;81.78;101139.59;146611;579;46027;-69
2024/01/17 05:26:52;;;;;;;;;24.00;22.00;;;;;7.80;81.14;101007.19;146614;597;46021;-69
2024/01/17 05:30:04;;;;;;;;;28.25;25.50;;;;;8.54;81.33;101130.12;146608;577;46915;-69
2024/01/17 05:33:03;;;;;;;;;30.50;28.75;;;;;8.59;81.77;101140.75;146614;589;46021;-69
2024/01/17 05:36:05;;;;;;;;;33.75;30.25;;;;;8.67;81.46;101155.09;146607;569;47014;-71
2024/01/17 05:39:34;;;;;;;;;44.25;37.25;;;;;8.75;81.29;101147.81;146611;618;47011;-68
2024/01/17 05:42:37;;;;;;;;;27.75;26.50;;;;;8.81;81.08;101139.56;146611;601;47012;-70
2024/01/17 05:45:42;;;;;;;;;20.50;19.00;;;;;8.77;82.54;101136.78;146611;646;47010;-69
2024/01/17 05:48:39;;;;;;;;;21.00;20.75;;;;;8.72;83.87;101132.13;146606;564;47014;-69
2024/01/17 05:51:34;;;;;;;;;17.25;16.00;;;;;8.66;84.81;101109.38;146612;604;47028;-69
2024/01/17 05:54:31;;;;;;;;;19.50;16.50;;;;;8.64;83.98;101112.66;146602;590;49014;-70
2024/01/17 05:57:29;;;;;;;;;16.00;15.25;;;;;8.67;83.29;101113.72;146612;566;47010;-69
2024/01/17 06:00:21;;;;;;;;;13.50;12.25;;;;;8.71;86.26;101125.16;146709;564;46022;-69
2024/01/17 06:03:25;;;;;;;;;19.75;17.50;;;;;8.82;83.44;101141.38;146616;594;46016;-69
2024/01/17 06:06:34;;;;;;;;;16.50;14.50;;;;;8.92;82.87;101141.19;146620;616;46020;-67
2024/01/17 06:09:30;;;;;;;;;24.75;21.25;;;;;9.06;82.55;101155.87;146616;604;46034;-68
2024/01/17 06:12:31;;;;;;;;;18.00;17.00;;;;;9.17;81.84;101164.34;146621;641;46020;-68
2024/01/17 06:15:30;;;;;;;;;29.00;24.75;;;;;9.29;81.43;101177.16;146616;674;46017;-68
2024/01/17 06:18:28;;;;;;;;;68.50;51.25;;;;;9.40;81.46;101183.91;146619;663;47020;-70
2024/01/17 06:21:29;;;;;;;;;76.50;63.75;;;;;9.47;80.95;101194.75;146616;611;46012;-69
2024/01/17 06:24:24;;;;;;;;;80.33;67.33;;;;;9.56;80.72;101185.75;146621;587;46030;-68
2024/01/17 06:27:25;;;;;;;;;89.33;81.00;;;;;9.61;80.45;101177.47;146619;563;47016;-69
2024/01/17 06:30:28;;;;;;;;;68.25;54.25;;;;;9.63;80.13;101175.91;146622;572;47021;-69
2024/01/17 06:33:34;;;;;;;;;69.75;53.25;;;;;9.58;79.11;101168.63;146610;595;47016;-68
2024/01/17 06:36:24;;;;;;;;;65.50;51.50;;;;;9.67;81.90;101185.63;146710;563;46022;-70
2024/01/17 06:39:26;;;;;;;;;68.25;53.50;;;;;9.75;80.61;101201.66;146619;624;47016;-70
2024/01/17 06:42:31;;;;;;;;;63.75;50.75;;;;;9.90;80.81;101187.03;146619;607;46020;-70
2024/01/17 06:45:34;;;;;;;;;62.50;49.00;;;;;10.06;80.18;101196.66;146615;622;47012;-70
2024/01/17 06:48:35;;;;;;;;;62.75;49.25;;;;;10.11;79.37;101184.84;146619;620;46020;-70
2024/01/17 06:51:27;;;;;;;;;57.50;46.25;;;;;10.22;79.41;101194.97;146617;602;46016;-69
2024/01/17 06:54:27;;;;;;;;;64.50;49.25;;;;;10.37;79.91;101202.03;146621;563;47010;-68
2024/01/17 06:57:38;;;;;;;;;59.25;46.00;;;;;10.78;81.15;101202.66;146617;687;46015;-69
2024/01/17 07:00:43;;;;;;;;;65.75;51.75;;;;;11.15;80.83;101204.75;146621;601;46010;-69
2024/01/17 07:03:40;;;;;;;;;59.00;47.25;;;;;11.31;79.06;101200.53;146618;606;46012;-69
2024/01/17 07:06:38;;;;;;;;;51.25;39.75;;;;;11.43;77.24;101204.59;146621;670;46011;-69
2024/01/17 07:09:38;;;;;;;;;56.50;45.00;;;;;11.53;76.18;101196.50;146614;571;47012;-69
2024/01/17 07:12:41;;;;;;;;;55.25;43.00;;;;;11.76;75.23;101196.03;146620;564;46021;-69
2024/01/17 07:15:48;;;;;;;;;49.75;40.50;;;;;11.98;74.90;101198.09;146614;734;46029;-70
2024/01/17 07:18:57;;;;;;;;;51.75;41.00;;;;;12.26;74.22;101191.75;146617;570;47012;-69
2024/01/17 07:21:52;;;;;;;;;53.50;41.00;;;;;12.77;76.37;101192.59;146615;588;46918;-66
2024/01/17 07:24:49;;;;;;;;;49.75;40.00;;;;;13.35;74.20;101192.00;146621;565;46012;-69
2024/01/17 07:27:46;;;;;;;;;47.00;37.75;;;;;13.96;72.16;101191.34;146610;583;47016;-69
2024/01/17 07:30:40;;;;;;;;;44.50;35.00;;;;;14.54;68.90;101191.28;146621;583;46020;-68
2024/01/17 07:33:32;;;;;;;;;47.00;40.25;;;;;14.88;65.42;101187.47;146618;563;46016;-69
2024/01/17 07:36:25;;;;;;;;;49.00;38.50;;;;;14.92;62.53;101190.28;146635;567;45011;-69
2024/01/17 07:39:48;;;;;;;;;49.00;39.00;;;;;14.72;61.98;101192.06;146633;578;46012;-68
2024/01/17 07:42:42;;;;;;;;;45.50;35.50;;;;;14.40;63.20;101208.03;146633;599;46010;-68
2024/01/17 07:46:05;;;;;;;;;36.00;32.50;;;;;14.06;64.15;101201.34;146630;571;46016;-70
2024/01/17 07:49:10;;;;;;;;;42.00;33.25;;;;;13.81;65.18;101195.00;146636;563;45010;-68
2024/01/17 07:52:07;;;;;;;;;37.25;29.50;;;;;13.69;66.32;101199.66;146632;577;45017;-69
2024/01/17 07:55:30;;;;;;;;;39.00;33.00;;;;;12.88;67.17;101066.50;146635;680;45020;-69
2024/01/17 07:58:23;;;;;;;;;44.25;36.25;;;;;13.88;68.20;101213.53;146632;614;45920;-69
2024/01/17 08:01:39;;;;;;;;;50.50;40.50;;;;;14.15;65.97;101222.63;146634;678;46010;-70
2024/01/17 08:04:39;;;;;;;;;56.25;45.75;;;;;14.37;65.86;101221.84;146633;577;46013;-69
2024/01/17 08:07:53;;;;;;;;;;;;;;;;;;;;;
2024/01/17 08:10:47;;;;;;;;;51.50;42.00;;;;;14.83;65.01;101228.16;146631;609;46018;-70
2024/01/17 08:13:52;;;;;;;;;55.00;43.00;;;;;14.25;63.85;101097.00;146634;623;47010;-69
2024/01/17 08:16:48;;;;;;;;;41.50;34.50;;;;;14.98;63.63;101224.50;146632;585;45016;-70
2024/01/17 08:19:46;;;;;;;;;43.75;34.75;;;;;15.05;63.79;101227.34;146636;626;46011;-67
2024/01/17 08:22:44;;;;;;;;;36.00;30.50;;;;;15.10;62.92;101236.25;146631;590;45918;-68
2024/01/17 08:25:53;;;;;;;;;68.25;50.75;;;;;14.98;63.12;101227.09;146631;577;46020;-68
2024/01/17 08:28:54;;;;;;;;;76.25;59.00;;;;;14.96;63.44;101243.53;146631;566;46012;-67
2024/01/17 08:32:02;;;;;;;;;56.50;43.25;;;;;14.24;64.74;101121.31;146632;569;45913;-67
2024/01/17 08:35:11;;;;;;;;;;;;;;;;;;;;;
2024/01/17 08:38:07;;;;;;;;;68.50;54.00;;;;;14.82;64.87;101256.00;146614;649;46020;-67
2024/01/17 08:41:00;;;;;;;;;58.50;45.75;;;;;14.77;64.79;101255.81;146607;650;47016;-66
2024/01/17 08:44:01;;;;;;;;;65.75;48.75;;;;;14.82;66.80;101261.22;146608;563;47012;-66
2024/01/17 08:47:06;;;;;;;;;52.50;42.00;;;;;15.09;67.64;101264.09;146610;619;46036;-69
2024/01/17 08:50:10;;;;;;;;;45.00;37.00;;;;;15.44;67.09;101262.03;146612;630;46021;-68
2024/01/17 08:53:03;;;;;;;;;45.00;37.00;;;;;15.74;64.74;101267.59;146607;569;47016;-68
2024/01/17 08:56:15;;;;;;;;;26.75;25.75;;;;;15.92;62.90;101262.19;146612;594;46020;-69
2024/01/17 08:59:19;;;;;;;;;32.25;30.00;;;;;16.12;63.17;101266.44;146606;602;46017;-69
2024/01/17 09:02:25;;;;;;;;;;;;;;;;;;;;;
2024/01/17 09:05:28;;;;;;;;;46.50;37.00;;;;;16.53;62.13;101256.59;146607;648;47016;-74
2024/01/17 09:08:30;;;;;;;;;53.00;41.75;;;;;16.74;60.66;101247.72;146613;691;46029;-69
2024/01/17 09:11:28;;;;;;;;;23.25;20.75;;;;;16.92;59.15;101247.50;146608;564;47015;-71
2024/01/17 09:14:24;;;;;;;;;24.75;21.00;;;;;17.00;58.87;101232.91;146613;673;46010;-71
2024/01/17 09:17:23;;;;;;;;;26.50;24.75;;;;;17.05;59.86;101232.22;146610;584;46012;-70
2024/01/17 09:20:33;;;;;;;;;29.25;25.75;;;;;17.18;59.37;101241.38;146614;599;46031;-71
2024/01/17 09:23:29;;;;;;;;;40.25;34.25;;;;;17.28;58.80;101234.69;146607;599;46014;-71
2024/01/17 09:26:57;;;;;;;;;29.25;27.00;;;;;16.61;60.18;101111.13;146610;573;46021;-72
2024/01/17 09:30:02;;;;;;;;;29.00;26.50;;;;;17.34;59.42;101228.75;146606;577;47012;-71
2024/01/17 09:33:27;;;;;;;;;29.25;28.75;;;;;17.34;59.62;101232.25;146611;572;46021;-71
2024/01/17 09:36:28;;;;;;;;;32.75;28.00;;;;;17.23;57.66;101225.81;146628;686;45034;-72
2024/01/17 09:39:27;;;;;;;;;30.00;26.75;;;;;17.05;58.30;101219.13;146634;600;45010;-69
2024/01/17 09:42:45;;;;;;;;;25.75;21.75;;;;;15.68;59.48;100998.97;146632;683;45918;-71
2024/01/17 09:45:48;;;;;;;;;23.00;21.00;;;;;16.83;60.04;101216.63;146631;604;45020;-72
2024/01/17 09:48:58;;;;;;;;;18.75;15.75;;;;;16.87;60.59;101210.66;146626;605;46013;-71
2024/01/17 09:52:14;;;;;;;;;12.75;12.00;;;;;16.93;61.11;101209.97;146635;576;46010;-71
2024/01/17 09:55:15;;;;;;;;;17.75;14.75;;;;;17.06;60.90;101212.16;146632;649;45028;-70
2024/01/17 09:58:10;;;;;;;;;24.00;22.50;;;;;17.16;59.10;101210.72;146635;610;45010;-71
2024/01/17 10:01:22;;;;;;;;;12.50;12.00;;;;;17.23;58.71;101207.47;146628;583;46016;-71
2024/01/17 10:04:19;;;;;;;;;17.00;14.75;;;;;17.31;58.20;101198.09;146625;611;46020;-71
2024/01/17 10:07:31;;;;;;;;;;;;;;;;;;;;;
2024/01/17 10:10:40;;;;;;;;;13.75;13.75;;;;;17.43;57.83;101202.84;146635;695;45010;-71
2024/01/17 10:13:47;;;;;;;;;15.75;14.75;;;;;17.33;58.64;101187.66;146633;566;45016;-71
2024/01/17 10:16:42;;;;;;;;;17.25;16.50;;;;;17.20;57.93;101175.91;146631;648;46010;-71
2024/01/17 10:19:42;;;;;;;;;23.00;19.25;;;;;17.14;59.88;101165.25;146633;578;45016;-72
2024/01/17 10:22:54;;;;;;;;;15.75;15.25;;;;;17.16;60.27;101156.56;146632;666;46010;-70
2024/01/17 10:25:49;;;;;;;;;15.50;15.50;;;;;17.21;60.82;101154.09;146631;573;46013;-71
2024/01/17 10:28:56;;;;;;;;;20.50;17.75;;;;;17.35;59.46;101146.66;146634;578;46020;-72
2024/01/17 10:32:37;;;;;;;;;20.25;18.25;;;;;16.20;60.23;100923.09;146629;586;45918;-71
2024/01/17 10:35:36;;;;;;;;;17.75;15.00;;;;;17.49;58.18;101134.84;146620;737;46033;-72
2024/01/17 10:38:28;;;;;;;;;19.00;16.25;;;;;17.49;59.31;101138.37;146609;601;46034;-71
2024/01/17 10:41:21;;;;;;;;;19.25;19.25;;;;;17.55;58.66;101140.28;146611;573;48010;-70
2024/01/17 10:44:25;;;;;;;;;17.75;16.75;;;;;17.59;59.67;101136.91;146609;566;46915;-71
2024/01/17 10:47:31;;;;;;;;;15.25;14.75;;;;;17.62;59.49;101131.75;146606;646;47020;-71
2024/01/17 10:50:29;;;;;;;;;12.25;12.00;;;;;17.62;59.41;101126.50;146608;610;47012;-71
2024/01/17 10:53:39;;;;;;;;;16.00;14.00;;;;;17.66;59.79;101119.59;146609;633;47010;-71
2024/01/17 10:56:41;;;;;;;;;14.50;11.75;;;;;17.72;59.45;101107.53;146608;622;46014;-71
2024/01/17 11:00:15;;;;;;;;;15.25;13.00;;;;;17.76;59.28;101106.81;146612;702;47012;-72
2024/01/17 11:03:28;;;;;;;;;11.00;11.00;;;;;17.79;60.13;101100.81;146608;583;47017;-71
2024/01/17 11:06:32;;;;;;;;;12.75;10.75;;;;;17.87;59.71;101099.25;146612;669;46027;-71
2024/01/17 11:09:39;;;;;;;;;12.00;10.00;;;;;17.95;59.08;101089.88;146605;716;46915;-70
2024/01/17 11:12:41;;;;;;;;;13.25;9.75;;;;;18.05;58.36;101082.25;146610;677;46021;-72
2024/01/17 11:15:45;;;;;;;;;12.00;11.25;;;;;18.17;58.00;101072.06;146615;745;46915;-70
2024/01/17 11:18:54;;;;;;;;;11.25;9.75;;;;;18.18;58.11;101069.47;146612;620;46020;-71
2024/01/17 11:21:50;;;;;;;;;10.00;10.00;;;;;18.21;57.23;101068.66;146612;658;47012;-72
2024/01/17 11:25:18;;;;;;;;;12.67;10.67;;;;;17.43;59.46;100925.84;146610;689;47010;-73
2024/01/17 11:28:26;;;;;;;;;10.00;10.00;;;;;18.23;58.44;101064.34;146606;645;47012;-72
2024/01/17 11:31:59;;;;;;;;;8.33;8.33;;;;;17.47;57.58;100950.41;146614;587;47010;-72
2024/01/17 11:34:57;;;;;;;;;12.00;12.00;;;;;18.16;59.34;101065.03;146616;587;46915;-72
2024/01/17 11:37:58;;;;;;;;;12.00;11.25;;;;;18.07;59.75;101072.66;146615;573;46020;-71
2024/01/17 11:41:08;;;;;;;;;12.33;11.00;;;;;17.91;59.75;101066.12;146601;614;47916;-71
2024/01/17 11:44:09;;;;;;;;;11.50;11.25;;;;;17.82;60.40;101073.75;146610;704;46010;-71
2024/01/17 11:47:09;;;;;;;;;12.50;11.50;;;;;17.78;60.06;101070.16;146606;629;46921;-72
2024/01/17 11:50:05;;;;;;;;;16.25;12.25;;;;;17.75;59.98;101065.66;146611;566;47020;-70
2024/01/17 11:53:08;;;;;;;;;11.00;9.00;;;;;17.73;59.50;101056.00;146609;596;46014;-71
2024/01/17 11:56:20;;;;;;;;;13.75;12.00;;;;;16.85;60.12;100893.72;146606;624;46011;-70
2024/01/17 11:59:29;;;;;;;;;11.33;11.33;;;;;17.92;60.41;101055.69;146610;668;46016;-71
2024/01/17 12:02:49;;;;;;;;;11.33;9.00;;;;;18.12;60.81;101045.69;146615;603;46020;-72
2024/01/17 12:05:45;;;;;;;;;11.00;11.00;;;;;18.29;58.73;101051.38;146615;659;46016;-72
2024/01/17 12:08:43;;;;;;;;;16.25;13.75;;;;;18.40;59.29;101056.88;146614;637;46020;-72
2024/01/17 12:11:35;;;;;;;;;4.75;3.75;;;;;18.55;58.06;101057.25;146609;728;46016;-72
2024/01/17 12:14:48;;;;;;;;;9.00;9.00;;;;;18.70;59.13;101048.88;146622;595;46010;-71
2024/01/17 12:17:52;;;;;;;;;11.50;8.25;;;;;18.84;56.71;101042.22;146616;583;46013;-76
2024/01/17 12:21:11;;;;;;;;;11.75;11.75;;;;;18.88;57.30;101037.94;146620;583;46020;-70
2024/01/17 12:24:06;;;;;;;;;16.00;13.00;;;;;18.90;57.41;101033.59;146611;580;46017;-72
2024/01/17 12:27:14;;;;;;;;;14.00;11.25;;;;;19.05;56.43;101033.03;146606;581;46026;-71
2024/01/17 12:30:19;;;;;;;;;15.25;14.25;;;;;19.19;56.93;101028.06;146610;732;46016;-71
2024/01/17 12:33:24;;;;;;;;;11.00;10.75;;;;;19.27;56.85;101024.75;146611;564;48010;-72
2024/01/17 12:36:22;;;;;;;;;15.00;12.25;;;;;19.32;56.30;101012.59;146629;709;46919;-70
2024/01/17 12:39:32;;;;;;;;;12.25;11.75;;;;;19.30;56.17;101010.78;146630;575;46011;-70
2024/01/17 12:42:37;;;;;;;;;16.00;14.50;;;;;19.24;56.08;101010.66;146630;650;46915;-71
2024/01/17 12:45:45;;;;;;;;;16.25;14.75;;;;;19.17;57.03;101004.38;146635;597;46010;-71
2024/01/17 12:49:06;;;;;;;;;11.00;8.50;;;;;18.04;56.88;100799.69;146616;681;46035;-71
2024/01/17 12:52:12;;;;;;;;;11.00;10.67;;;;;19.20;57.04;100996.56;146636;706;45012;-71
2024/01/17 12:55:24;;;;;;;;;11.50;10.50;;;;;18.14;57.45;100789.44;146631;683;46916;-71
2024/01/17 12:58:20;;;;;;;;;10.00;10.00;;;;;19.30;54.32;100985.38;146628;576;45022;-72
2024/01/17 13:01:30;;;;;;;;;14.00;14.00;;;;;19.30;55.47;100981.84;146628;643;45918;-72
2024/01/17 13:04:30;;;;;;;;;17.00;13.75;;;;;19.34;56.60;100984.56;146631;649;46010;-71
2024/01/17 13:07:43;;;;;;;;;;;;;;;;;;;;;
2024/01/17 13:10:52;;;;;;;;;12.25;10.00;;;;;19.21;54.74;100973.78;146632;579;45021;-70
2024/01/17 13:13:54;;;;;;;;;12.50;11.75;;;;;19.15;56.20;100966.66;146631;654;45918;-71
2024/01/17 13:16:53;;;;;;;;;11.33;10.67;;;;;19.13;53.70;100965.75;146629;652;46861;-72
2024/01/17 13:19:59;;;;;;;;;14.00;11.00;;;;;19.11;55.49;100970.97;146634;609;45016;-73
2024/01/17 13:22:56;;;;;;;;;14.50;12.25;;;;;19.19;56.00;100970.22;146633;604;46020;-71
2024/01/17 13:26:07;;;;;;;;;12.00;11.00;;;;;18.56;57.34;100864.69;146633;625;45916;-71
2024/01/17 13:29:12;;;;;;;;;8.75;7.75;;;;;19.21;56.35;100973.78;146626;607;46010;-71
2024/01/17 13:32:09;;;;;;;;;9.00;9.00;;;;;19.17;54.79;100969.34;146634;577;45017;-71
2024/01/17 13:35:13;;;;;;;;;10.67;9.67;;;;;18.35;57.14;100844.16;146625;638;46020;-71
2024/01/17 13:38:16;;;;;;;;;13.25;12.00;;;;;18.89;56.83;100963.50;146615;618;46016;-71
2024/01/17 13:41:15;;;;;;;;;13.33;10.33;;;;;18.90;56.26;100965.25;146611;622;46916;-71
2024/01/17 13:44:12;;;;;;;;;13.00;12.33;;;;;18.96;56.92;100964.50;146611;569;46016;-70
2024/01/17 13:47:05;;;;;;;;;11.50;11.00;;;;;18.95;57.05;100965.38;146609;599;47010;-71
2024/01/17 13:50:16;;;;;;;;;11.00;10.00;;;;;18.98;57.88;100981.22;146608;569;46016;-73
2024/01/17 13:53:41;;;;;;;;;5.00;3.00;;;;;19.04;57.78;100984.84;146614;574;46020;-72
2024/01/17 13:56:57;;;;;;;;;12.00;12.00;;;;;18.40;59.32;100873.09;146615;619;46016;-73
2024/01/17 14:00:04;;;;;;;;;17.75;16.75;;;;;19.06;58.77;100985.75;146607;636;46010;-73
2024/01/17 14:03:01;;;;;;;;;14.25;12.75;;;;;19.12;58.70;100998.12;146608;579;47012;-72
2024/01/17 14:05:59;;;;;;;;;15.00;14.00;;;;;19.15;58.70;100995.56;146612;575;46020;-73
2024/01/17 14:09:08;;;;;;;;;14.50;12.75;;;;;19.04;58.25;100992.72;146602;669;47014;-72
2024/01/17 14:12:14;;;;;;;;;22.75;21.25;;;;;18.33;59.42;100893.09;146612;593;47010;-72
2024/01/17 14:15:19;;;;;;;;;11.50;10.75;;;;;18.93;58.20;100996.87;146607;653;47017;-72